sensor_id;sensor_type;location;lat;lon;timestamp;P1;durP1;ratioP1;P2;durP2;ratioP2
21663;SDS011;10993;52.510;13.456;2022-09-02T00:03:43;4.05;;;1.33;;
21663;SDS011;10993;52.510;13.456;2022-09-02T00:08:44;4.15;;;1.30;;
21663;SDS011;10993;52.510;13.456;2022-09-02T00:13:44;2.50;;;0.88;;
21663;SDS011;10993;52.510;13.456;2022-09-02T00:18:46;2.40;;;0.93;;
21663;SDS011;10993;52.510;13.456;2022-09-02T00:23:48;1.25;;;0.80;;
21663;SDS011;10993;52.510;13.456;2022-09-02T00:28:48;1.70;;;0.80;;
21663;SDS011;10993;52.510;13.456;2022-09-02T00:33:50;5.38;;;1.40;;
21663;SDS011;10993;52.510;13.456;2022-09-02T00:38:51;1.45;;;0.73;;
21663;SDS011;10993;52.510;13.456;2022-09-02T00:43:53;1.65;;;0.80;;
21663;SDS011;10993;52.510;13.456;2022-09-02T00:48:58;3.17;;;0.82;;
21663;SDS011;10993;52.510;13.456;2022-09-02T00:54:01;1.77;;;0.90;;
21663;SDS011;10993;52.510;13.456;2022-09-02T00:59:02;2.38;;;0.80;;
21663;SDS011;10993;52.510;13.456;2022-09-02T01:04:04;2.15;;;0.80;;
21663;SDS011;10993;52.510;13.456;2022-09-02T01:09:06;2.90;;;0.90;;
21663;SDS011;10993;52.510;13.456;2022-09-02T01:14:10;2.45;;;0.88;;
21663;SDS011;10993;52.510;13.456;2022-09-02T01:19:17;4.20;;;0.80;;
21663;SDS011;10993;52.510;13.456;2022-09-02T01:24:24;3.40;;;1.00;;
21663;SDS011;10993;52.510;13.456;2022-09-02T01:29:27;2.03;;;0.80;;
21663;SDS011;10993;52.510;13.456;2022-09-02T01:34:27;3.70;;;1.08;;
21663;SDS011;10993;52.510;13.456;2022-09-02T01:39:30;2.05;;;1.02;;
21663;SDS011;10993;52.510;13.456;2022-09-02T01:44:31;2.88;;;0.80;;
21663;SDS011;10993;52.510;13.456;2022-09-02T01:49:32;1.77;;;0.70;;
21663;SDS011;10993;52.510;13.456;2022-09-02T01:54:34;1.85;;;1.02;;
21663;SDS011;10993;52.510;13.456;2022-09-02T01:59:35;1.38;;;0.90;;
21663;SDS011;10993;52.510;13.456;2022-09-02T02:04:36;2.17;;;1.00;;
21663;SDS011;10993;52.510;13.456;2022-09-02T02:09:38;1.75;;;0.80;;
21663;SDS011;10993;52.510;13.456;2022-09-02T02:14:38;2.42;;;1.02;;
21663;SDS011;10993;52.510;13.456;2022-09-02T02:19:39;2.00;;;0.88;;
21663;SDS011;10993;52.510;13.456;2022-09-02T02:24:41;2.25;;;1.00;;
21663;SDS011;10993;52.510;13.456;2022-09-02T02:29:41;2.25;;;1.02;;
21663;SDS011;10993;52.510;13.456;2022-09-02T02:34:42;1.83;;;0.98;;
21663;SDS011;10993;52.510;13.456;2022-09-02T02:39:43;1.77;;;0.85;;
21663;SDS011;10993;52.510;13.456;2022-09-02T02:44:44;3.22;;;1.13;;
21663;SDS011;10993;52.510;13.456;2022-09-02T02:49:44;2.20;;;1.00;;
21663;SDS011;10993;52.510;13.456;2022-09-02T02:54:46;3.25;;;1.08;;
21663;SDS011;10993;52.510;13.456;2022-09-02T02:59:46;2.47;;;0.85;;
21663;SDS011;10993;52.510;13.456;2022-09-02T03:04:46;2.83;;;1.33;;
21663;SDS011;10993;52.510;13.456;2022-09-02T03:09:51;2.17;;;0.93;;
21663;SDS011;10993;52.510;13.456;2022-09-02T03:14:51;2.63;;;1.23;;
21663;SDS011;10993;52.510;13.456;2022-09-02T03:19:51;3.17;;;1.13;;
21663;SDS011;10993;52.510;13.456;2022-09-02T03:24:54;1.52;;;0.93;;
21663;SDS011;10993;52.510;13.456;2022-09-02T03:29:54;3.45;;;1.20;;
21663;SDS011;10993;52.510;13.456;2022-09-02T03:34:55;11.95;;;1.80;;
21663;SDS011;10993;52.510;13.456;2022-09-02T03:39:57;2.70;;;1.15;;
21663;SDS011;10993;52.510;13.456;2022-09-02T03:45:00;3.90;;;1.48;;
21663;SDS011;10993;52.510;13.456;2022-09-02T03:50:01;2.35;;;1.30;;
21663;SDS011;10993;52.510;13.456;2022-09-02T03:55:04;1.80;;;1.02;;
21663;SDS011;10993;52.510;13.456;2022-09-02T04:00:06;3.13;;;1.20;;
21663;SDS011;10993;52.510;13.456;2022-09-02T04:05:10;3.53;;;1.38;;
21663;SDS011;10993;52.510;13.456;2022-09-02T04:10:12;2.70;;;1.30;;
21663;SDS011;10993;52.510;13.456;2022-09-02T04:15:16;4.65;;;1.23;;
21663;SDS011;10993;52.510;13.456;2022-09-02T04:20:18;2.45;;;1.30;;
21663;SDS011;10993;52.510;13.456;2022-09-02T04:25:20;3.20;;;1.10;;
21663;SDS011;10993;52.510;13.456;2022-09-02T04:30:20;3.53;;;1.10;;
21663;SDS011;10993;52.510;13.456;2022-09-02T04:35:21;2.22;;;1.20;;
21663;SDS011;10993;52.510;13.456;2022-09-02T04:40:23;2.10;;;1.02;;
21663;SDS011;10993;52.510;13.456;2022-09-02T04:45:24;3.25;;;1.33;;
21663;SDS011;10993;52.510;13.456;2022-09-02T04:50:24;2.53;;;1.25;;
21663;SDS011;10993;52.510;13.456;2022-09-02T04:55:26;5.18;;;1.55;;
21663;SDS011;10993;52.510;13.456;2022-09-02T05:00:26;2.90;;;1.27;;
21663;SDS011;10993;52.510;13.456;2022-09-02T05:05:26;2.30;;;1.40;;
21663;SDS011;10993;52.510;13.456;2022-09-02T05:10:28;3.35;;;1.23;;
21663;SDS011;10993;52.510;13.456;2022-09-02T05:15:29;2.88;;;1.30;;
21663;SDS011;10993;52.510;13.456;2022-09-02T05:20:30;7.28;;;1.70;;
21663;SDS011;10993;52.510;13.456;2022-09-02T05:25:32;1.98;;;1.15;;
21663;SDS011;10993;52.510;13.456;2022-09-02T05:30:36;3.13;;;1.40;;
21663;SDS011;10993;52.510;13.456;2022-09-02T05:35:38;6.15;;;1.40;;
21663;SDS011;10993;52.510;13.456;2022-09-02T05:40:41;3.40;;;1.60;;
21663;SDS011;10993;52.510;13.456;2022-09-02T05:45:41;2.97;;;1.05;;
21663;SDS011;10993;52.510;13.456;2022-09-02T05:50:41;3.05;;;1.40;;
21663;SDS011;10993;52.510;13.456;2022-09-02T05:55:43;7.35;;;1.65;;
21663;SDS011;10993;52.510;13.456;2022-09-02T06:00:43;4.00;;;1.52;;
21663;SDS011;10993;52.510;13.456;2022-09-02T06:05:51;3.10;;;1.38;;
21663;SDS011;10993;52.510;13.456;2022-09-02T06:10:54;6.40;;;1.50;;
21663;SDS011;10993;52.510;13.456;2022-09-02T06:15:55;3.63;;;1.60;;
21663;SDS011;10993;52.510;13.456;2022-09-02T06:20:56;3.17;;;1.50;;
21663;SDS011;10993;52.510;13.456;2022-09-02T06:25:58;5.65;;;1.98;;
21663;SDS011;10993;52.510;13.456;2022-09-02T06:30:59;4.78;;;1.80;;
21663;SDS011;10993;52.510;13.456;2022-09-02T06:35:59;7.85;;;2.25;;
21663;SDS011;10993;52.510;13.456;2022-09-02T06:41:01;4.90;;;1.83;;
21663;SDS011;10993;52.510;13.456;2022-09-02T06:46:01;4.20;;;1.67;;
21663;SDS011;10993;52.510;13.456;2022-09-02T06:51:01;7.22;;;1.65;;
21663;SDS011;10993;52.510;13.456;2022-09-02T06:56:04;6.00;;;1.42;;
21663;SDS011;10993;52.510;13.456;2022-09-02T07:01:06;2.60;;;1.13;;
21663;SDS011;10993;52.510;13.456;2022-09-02T07:06:08;5.47;;;1.30;;
21663;SDS011;10993;52.510;13.456;2022-09-02T07:11:16;2.85;;;1.10;;
21663;SDS011;10993;52.510;13.456;2022-09-02T07:16:17;2.80;;;1.10;;
21663;SDS011;10993;52.510;13.456;2022-09-02T07:21:18;2.88;;;0.98;;
21663;SDS011;10993;52.510;13.456;2022-09-02T07:26:20;3.72;;;1.10;;
21663;SDS011;10993;52.510;13.456;2022-09-02T07:31:21;3.90;;;0.93;;
21663;SDS011;10993;52.510;13.456;2022-09-02T07:36:22;4.25;;;1.40;;
21663;SDS011;10993;52.510;13.456;2022-09-02T07:41:24;4.22;;;1.30;;
21663;SDS011;10993;52.510;13.456;2022-09-02T07:46:24;2.53;;;1.13;;
21663;SDS011;10993;52.510;13.456;2022-09-02T07:51:25;2.65;;;0.80;;
21663;SDS011;10993;52.510;13.456;2022-09-02T07:56:27;5.85;;;1.00;;
21663;SDS011;10993;52.510;13.456;2022-09-02T08:01:28;4.72;;;0.80;;
21663;SDS011;10993;52.510;13.456;2022-09-02T08:06:29;3.75;;;0.80;;
21663;SDS011;10993;52.510;13.456;2022-09-02T08:11:32;2.83;;;1.33;;
21663;SDS011;10993;52.510;13.456;2022-09-02T08:16:38;3.15;;;0.90;;
21663;SDS011;10993;52.510;13.456;2022-09-02T08:21:38;3.10;;;1.00;;
21663;SDS011;10993;52.510;13.456;2022-09-02T08:26:40;1.97;;;0.90;;
21663;SDS011;10993;52.510;13.456;2022-09-02T08:31:41;5.57;;;1.20;;
21663;SDS011;10993;52.510;13.456;2022-09-02T08:36:42;5.55;;;1.63;;
21663;SDS011;10993;52.510;13.456;2022-09-02T08:41:46;1.98;;;1.00;;
21663;SDS011;10993;52.510;13.456;2022-09-02T08:46:55;1.88;;;0.85;;
21663;SDS011;10993;52.510;13.456;2022-09-02T08:52:02;2.80;;;0.88;;
21663;SDS011;10993;52.510;13.456;2022-09-02T08:57:05;2.45;;;0.90;;
21663;SDS011;10993;52.510;13.456;2022-09-02T09:02:09;2.78;;;1.08;;
21663;SDS011;10993;52.510;13.456;2022-09-02T09:07:23;0.80;;;0.60;;
21663;SDS011;10993;52.510;13.456;2022-09-02T09:12:40;2.67;;;0.85;;
21663;SDS011;10993;52.510;13.456;2022-09-02T09:17:53;1.23;;;0.52;;
21663;SDS011;10993;52.510;13.456;2022-09-02T09:22:59;1.70;;;0.38;;
21663;SDS011;10993;52.510;13.456;2022-09-02T09:28:06;1.77;;;0.50;;
21663;SDS011;10993;52.510;13.456;2022-09-02T09:33:06;1.17;;;0.50;;
21663;SDS011;10993;52.510;13.456;2022-09-02T09:38:11;2.25;;;0.43;;
21663;SDS011;10993;52.510;13.456;2022-09-02T09:43:14;1.58;;;0.50;;
21663;SDS011;10993;52.510;13.456;2022-09-02T09:48:19;0.90;;;0.40;;
21663;SDS011;10993;52.510;13.456;2022-09-02T09:53:22;1.98;;;0.73;;
21663;SDS011;10993;52.510;13.456;2022-09-02T09:58:26;2.30;;;0.50;;
21663;SDS011;10993;52.510;13.456;2022-09-02T10:03:30;2.30;;;0.80;;
21663;SDS011;10993;52.510;13.456;2022-09-02T10:08:31;1.25;;;0.60;;
21663;SDS011;10993;52.510;13.456;2022-09-02T10:13:35;5.90;;;0.80;;
21663;SDS011;10993;52.510;13.456;2022-09-02T10:18:38;4.80;;;1.02;;
21663;SDS011;10993;52.510;13.456;2022-09-02T10:23:46;4.07;;;0.80;;
21663;SDS011;10993;52.510;13.456;2022-09-02T10:29:01;0.85;;;0.60;;
21663;SDS011;10993;52.510;13.456;2022-09-02T10:34:15;1.15;;;0.70;;
21663;SDS011;10993;52.510;13.456;2022-09-02T10:39:24;4.68;;;1.02;;
21663;SDS011;10993;52.510;13.456;2022-09-02T10:44:31;4.22;;;1.27;;
21663;SDS011;10993;52.510;13.456;2022-09-02T10:49:50;2.58;;;0.93;;
21663;SDS011;10993;52.510;13.456;2022-09-02T10:55:03;1.02;;;0.55;;
21663;SDS011;10993;52.510;13.456;2022-09-02T11:00:12;2.00;;;0.70;;
21663;SDS011;10993;52.510;13.456;2022-09-02T11:05:15;2.35;;;0.73;;
21663;SDS011;10993;52.510;13.456;2022-09-02T11:10:19;2.58;;;0.70;;
21663;SDS011;10993;52.510;13.456;2022-09-02T11:15:26;0.88;;;0.60;;
21663;SDS011;10993;52.510;13.456;2022-09-02T11:20:40;2.08;;;0.88;;
21663;SDS011;10993;52.510;13.456;2022-09-02T11:25:48;3.10;;;0.63;;
21663;SDS011;10993;52.510;13.456;2022-09-02T11:30:57;1.52;;;0.70;;
21663;SDS011;10993;52.510;13.456;2022-09-02T11:36:02;1.90;;;0.80;;
21663;SDS011;10993;52.510;13.456;2022-09-02T11:46:39;2.03;;;0.60;;
21663;SDS011;10993;52.510;13.456;2022-09-02T11:51:57;1.50;;;0.50;;
21663;SDS011;10993;52.510;13.456;2022-09-02T11:57:03;2.45;;;0.70;;
21663;SDS011;10993;52.510;13.456;2022-09-02T12:02:06;2.88;;;0.50;;
21663;SDS011;10993;52.510;13.456;2022-09-02T12:07:23;4.57;;;1.00;;
21663;SDS011;10993;52.510;13.456;2022-09-02T12:18:10;2.25;;;0.88;;
21663;SDS011;10993;52.510;13.456;2022-09-02T12:28:47;2.03;;;0.90;;
21663;SDS011;10993;52.510;13.456;2022-09-02T12:33:50;1.30;;;0.70;;
21663;SDS011;10993;52.510;13.456;2022-09-02T12:38:50;1.85;;;0.90;;
21663;SDS011;10993;52.510;13.456;2022-09-02T12:43:53;1.30;;;0.70;;
21663;SDS011;10993;52.510;13.456;2022-09-02T12:49:24;6.18;;;0.95;;
21663;SDS011;10993;52.510;13.456;2022-09-02T12:54:39;2.33;;;0.90;;
21663;SDS011;10993;52.510;13.456;2022-09-02T12:59:43;2.28;;;0.85;;
21663;SDS011;10993;52.510;13.456;2022-09-02T13:04:48;2.70;;;0.90;;
21663;SDS011;10993;52.510;13.456;2022-09-02T13:10:06;1.70;;;0.75;;
21663;SDS011;10993;52.510;13.456;2022-09-02T13:15:24;1.38;;;0.80;;
21663;SDS011;10993;52.510;13.456;2022-09-02T13:20:48;1.75;;;0.90;;
21663;SDS011;10993;52.510;13.456;2022-09-02T13:26:33;2.90;;;0.68;;
21663;SDS011;10993;52.510;13.456;2022-09-02T13:31:56;2.47;;;0.82;;
21663;SDS011;10993;52.510;13.456;2022-09-02T13:36:59;1.33;;;0.70;;
21663;SDS011;10993;52.510;13.456;2022-09-02T13:41:59;3.00;;;1.23;;
21663;SDS011;10993;52.510;13.456;2022-09-02T13:47:13;3.67;;;1.33;;
21663;SDS011;10993;52.510;13.456;2022-09-02T13:52:19;2.13;;;1.00;;
21663;SDS011;10993;52.510;13.456;2022-09-02T13:57:22;1.30;;;0.70;;
21663;SDS011;10993;52.510;13.456;2022-09-02T14:02:26;2.92;;;1.10;;
21663;SDS011;10993;52.510;13.456;2022-09-02T14:07:31;2.72;;;0.85;;
21663;SDS011;10993;52.510;13.456;2022-09-02T14:12:36;1.98;;;1.13;;
21663;SDS011;10993;52.510;13.456;2022-09-02T14:17:38;3.90;;;1.00;;
21663;SDS011;10993;52.510;13.456;2022-09-02T14:22:40;1.63;;;0.70;;
21663;SDS011;10993;52.510;13.456;2022-09-02T14:27:46;0.98;;;0.60;;
21663;SDS011;10993;52.510;13.456;2022-09-02T14:32:48;4.50;;;0.90;;
21663;SDS011;10993;52.510;13.456;2022-09-02T14:37:51;2.63;;;0.70;;
21663;SDS011;10993;52.510;13.456;2022-09-02T14:42:53;1.55;;;0.70;;
21663;SDS011;10993;52.510;13.456;2022-09-02T14:47:54;2.40;;;1.00;;
21663;SDS011;10993;52.510;13.456;2022-09-02T14:53:02;2.00;;;0.80;;
21663;SDS011;10993;52.510;13.456;2022-09-02T14:58:04;1.70;;;0.68;;
21663;SDS011;10993;52.510;13.456;2022-09-02T15:03:05;3.67;;;0.80;;
21663;SDS011;10993;52.510;13.456;2022-09-02T15:08:07;2.35;;;1.00;;
21663;SDS011;10993;52.510;13.456;2022-09-02T15:13:08;1.45;;;0.63;;
21663;SDS011;10993;52.510;13.456;2022-09-02T15:18:11;2.28;;;0.80;;
21663;SDS011;10993;52.510;13.456;2022-09-02T15:23:12;1.73;;;0.67;;
21663;SDS011;10993;52.510;13.456;2022-09-02T15:28:13;2.47;;;0.77;;
21663;SDS011;10993;52.510;13.456;2022-09-02T15:33:13;1.33;;;0.70;;
21663;SDS011;10993;52.510;13.456;2022-09-02T15:38:15;1.23;;;0.60;;
21663;SDS011;10993;52.510;13.456;2022-09-02T15:43:16;1.58;;;0.70;;
21663;SDS011;10993;52.510;13.456;2022-09-02T15:48:17;2.50;;;0.60;;
21663;SDS011;10993;52.510;13.456;2022-09-02T15:53:19;1.73;;;0.40;;
21663;SDS011;10993;52.510;13.456;2022-09-02T15:58:19;1.92;;;0.77;;
21663;SDS011;10993;52.510;13.456;2022-09-02T16:03:19;1.50;;;0.80;;
21663;SDS011;10993;52.510;13.456;2022-09-02T16:08:21;6.67;;;1.40;;
21663;SDS011;10993;52.510;13.456;2022-09-02T16:13:21;2.88;;;0.90;;
21663;SDS011;10993;52.510;13.456;2022-09-02T16:18:22;1.27;;;0.75;;
21663;SDS011;10993;52.510;13.456;2022-09-02T16:23:23;1.17;;;0.60;;
21663;SDS011;10993;52.510;13.456;2022-09-02T16:28:24;3.22;;;1.50;;
21663;SDS011;10993;52.510;13.456;2022-09-02T16:33:24;3.57;;;1.27;;
21663;SDS011;10993;52.510;13.456;2022-09-02T16:38:26;2.63;;;1.27;;
21663;SDS011;10993;52.510;13.456;2022-09-02T16:43:27;4.22;;;0.90;;
21663;SDS011;10993;52.510;13.456;2022-09-02T16:48:31;7.05;;;1.00;;
21663;SDS011;10993;52.510;13.456;2022-09-02T16:53:34;2.72;;;0.90;;
21663;SDS011;10993;52.510;13.456;2022-09-02T16:58:35;2.70;;;1.50;;
21663;SDS011;10993;52.510;13.456;2022-09-02T17:03:36;3.00;;;0.80;;
21663;SDS011;10993;52.510;13.456;2022-09-02T17:08:39;2.30;;;1.13;;
21663;SDS011;10993;52.510;13.456;2022-09-02T17:13:42;2.55;;;1.00;;
21663;SDS011;10993;52.510;13.456;2022-09-02T17:18:42;2.13;;;1.00;;
21663;SDS011;10993;52.510;13.456;2022-09-02T17:23:44;3.50;;;1.25;;
21663;SDS011;10993;52.510;13.456;2022-09-02T17:28:44;1.70;;;0.90;;
21663;SDS011;10993;52.510;13.456;2022-09-02T17:33:49;3.92;;;1.40;;
21663;SDS011;10993;52.510;13.456;2022-09-02T17:38:54;4.70;;;1.52;;
21663;SDS011;10993;52.510;13.456;2022-09-02T17:43:56;2.25;;;1.10;;
21663;SDS011;10993;52.510;13.456;2022-09-02T17:48:56;2.95;;;1.33;;
21663;SDS011;10993;52.510;13.456;2022-09-02T17:53:58;3.70;;;0.90;;
21663;SDS011;10993;52.510;13.456;2022-09-02T17:59:01;3.10;;;1.30;;
21663;SDS011;10993;52.510;13.456;2022-09-02T18:04:14;2.92;;;1.30;;
21663;SDS011;10993;52.510;13.456;2022-09-02T18:09:26;3.30;;;1.40;;
21663;SDS011;10993;52.510;13.456;2022-09-02T18:14:31;6.20;;;1.30;;
21663;SDS011;10993;52.510;13.456;2022-09-02T18:19:39;3.95;;;1.40;;
21663;SDS011;10993;52.510;13.456;2022-09-02T18:24:57;5.75;;;1.92;;
21663;SDS011;10993;52.510;13.456;2022-09-02T18:30:08;4.68;;;1.70;;
21663;SDS011;10993;52.510;13.456;2022-09-02T18:35:15;7.13;;;1.92;;
21663;SDS011;10993;52.510;13.456;2022-09-02T18:40:26;5.05;;;1.35;;
21663;SDS011;10993;52.510;13.456;2022-09-02T18:45:32;2.97;;;1.52;;
21663;SDS011;10993;52.510;13.456;2022-09-02T18:50:35;2.92;;;1.40;;
21663;SDS011;10993;52.510;13.456;2022-09-02T18:55:40;5.30;;;1.27;;
21663;SDS011;10993;52.510;13.456;2022-09-02T19:00:44;3.90;;;1.73;;
21663;SDS011;10993;52.510;13.456;2022-09-02T19:05:49;2.70;;;1.50;;
21663;SDS011;10993;52.510;13.456;2022-09-02T19:10:53;3.63;;;1.40;;
21663;SDS011;10993;52.510;13.456;2022-09-02T19:15:57;2.92;;;1.35;;
21663;SDS011;10993;52.510;13.456;2022-09-02T19:20:58;2.70;;;1.30;;
21663;SDS011;10993;52.510;13.456;2022-09-02T19:26:00;3.75;;;1.40;;
21663;SDS011;10993;52.510;13.456;2022-09-02T19:31:01;4.47;;;2.50;;
21663;SDS011;10993;52.510;13.456;2022-09-02T19:36:03;7.07;;;2.08;;
21663;SDS011;10993;52.510;13.456;2022-09-02T19:41:04;5.95;;;2.50;;
21663;SDS011;10993;52.510;13.456;2022-09-02T19:46:06;3.78;;;1.90;;
21663;SDS011;10993;52.510;13.456;2022-09-02T19:51:08;4.43;;;2.20;;
21663;SDS011;10993;52.510;13.456;2022-09-02T19:56:13;4.63;;;1.73;;
21663;SDS011;10993;52.510;13.456;2022-09-02T20:01:13;4.53;;;2.30;;
21663;SDS011;10993;52.510;13.456;2022-09-02T20:06:14;6.30;;;2.03;;
21663;SDS011;10993;52.510;13.456;2022-09-02T20:11:15;3.38;;;2.03;;
21663;SDS011;10993;52.510;13.456;2022-09-02T20:16:17;5.75;;;2.42;;
21663;SDS011;10993;52.510;13.456;2022-09-02T20:21:21;4.30;;;1.98;;
21663;SDS011;10993;52.510;13.456;2022-09-02T20:26:27;6.55;;;2.08;;
21663;SDS011;10993;52.510;13.456;2022-09-02T20:31:43;4.40;;;1.90;;
21663;SDS011;10993;52.510;13.456;2022-09-02T20:36:56;5.75;;;1.58;;
21663;SDS011;10993;52.510;13.456;2022-09-02T20:42:06;3.60;;;1.55;;
21663;SDS011;10993;52.510;13.456;2022-09-02T20:47:32;3.15;;;1.63;;
21663;SDS011;10993;52.510;13.456;2022-09-02T20:52:44;3.33;;;1.42;;
21663;SDS011;10993;52.510;13.456;2022-09-02T20:57:57;4.10;;;1.83;;
21663;SDS011;10993;52.510;13.456;2022-09-02T21:03:15;5.72;;;2.03;;
21663;SDS011;10993;52.510;13.456;2022-09-02T21:08:18;5.10;;;1.60;;
21663;SDS011;10993;52.510;13.456;2022-09-02T21:13:30;5.57;;;1.75;;
21663;SDS011;10993;52.510;13.456;2022-09-02T21:18:37;3.72;;;1.80;;
21663;SDS011;10993;52.510;13.456;2022-09-02T21:23:42;3.70;;;1.40;;
21663;SDS011;10993;52.510;13.456;2022-09-02T21:28:48;2.65;;;1.48;;
21663;SDS011;10993;52.510;13.456;2022-09-02T21:33:51;4.40;;;1.63;;
21663;SDS011;10993;52.510;13.456;2022-09-02T21:38:54;6.53;;;1.65;;
21663;SDS011;10993;52.510;13.456;2022-09-02T21:44:01;4.75;;;1.70;;
21663;SDS011;10993;52.510;13.456;2022-09-02T21:49:09;3.58;;;1.70;;
21663;SDS011;10993;52.510;13.456;2022-09-02T21:54:24;3.60;;;1.67;;
21663;SDS011;10993;52.510;13.456;2022-09-02T21:59:38;3.25;;;1.73;;
21663;SDS011;10993;52.510;13.456;2022-09-02T22:04:54;3.88;;;1.40;;
21663;SDS011;10993;52.510;13.456;2022-09-02T22:10:04;4.90;;;1.80;;
21663;SDS011;10993;52.510;13.456;2022-09-02T22:15:13;5.55;;;1.50;;
21663;SDS011;10993;52.510;13.456;2022-09-02T22:20:20;3.30;;;1.38;;
21663;SDS011;10993;52.510;13.456;2022-09-02T22:25:24;4.60;;;1.85;;
21663;SDS011;10993;52.510;13.456;2022-09-02T22:30:29;5.78;;;1.65;;
21663;SDS011;10993;52.510;13.456;2022-09-02T22:35:32;5.50;;;1.35;;
21663;SDS011;10993;52.510;13.456;2022-09-02T22:40:38;4.93;;;1.20;;
21663;SDS011;10993;52.510;13.456;2022-09-02T22:45:45;3.05;;;1.48;;
21663;SDS011;10993;52.510;13.456;2022-09-02T22:51:12;3.88;;;1.40;;
21663;SDS011;10993;52.510;13.456;2022-09-02T22:56:37;3.75;;;1.30;;
21663;SDS011;10993;52.510;13.456;2022-09-02T23:01:45;4.47;;;1.30;;
21663;SDS011;10993;52.510;13.456;2022-09-02T23:06:52;2.92;;;1.20;;
21663;SDS011;10993;52.510;13.456;2022-09-02T23:11:58;5.78;;;1.33;;
21663;SDS011;10993;52.510;13.456;2022-09-02T23:17:13;3.60;;;1.30;;
21663;SDS011;10993;52.510;13.456;2022-09-02T23:22:24;4.03;;;1.25;;
21663;SDS011;10993;52.510;13.456;2022-09-02T23:27:33;2.92;;;1.02;;
21663;SDS011;10993;52.510;13.456;2022-09-02T23:32:51;3.10;;;1.17;;
21663;SDS011;10993;52.510;13.456;2022-09-02T23:38:07;4.25;;;1.33;;
21663;SDS011;10993;52.510;13.456;2022-09-02T23:43:18;2.50;;;1.08;;
21663;SDS011;10993;52.510;13.456;2022-09-02T23:48:26;2.72;;;1.08;;
21663;SDS011;10993;52.510;13.456;2022-09-02T23:53:35;3.17;;;1.10;;
21663;SDS011;10993;52.510;13.456;2022-09-02T23:58:44;3.28;;;1.10;;
